19°C Temp
9°C Dewpoint
52% Humidity
Temperature
8 KM/H
5 MPH
4 KTS
220°
South West

Wind Speed
Clear
Conditions
Pressure 1015.92 (hPa) - 30 (in)
Visibility 6.2 (mi) - 10.0 (km)

Current Conditions
LIME
Location 20(km)
Metar :LIME 161520Z 22004KT CAVOK 19/09 Q1016 NOSIG
Wed 16th October 17:20 pm

Airport
  Metar Aviation API Data Provided by https://www.checkwx.com/ PHP scripts by weather34.com ©2019